createdAt,value
2018-06-08T00:01:33.023Z,29.80
2018-06-08T00:04:01.302Z,31.50
2018-06-08T00:06:29.568Z,30.00
2018-06-08T00:08:57.989Z,27.23
2018-06-08T00:11:26.275Z,34.00
2018-06-08T00:13:54.576Z,35.83
2018-06-08T00:16:22.930Z,35.30
2018-06-08T00:18:51.701Z,35.77
2018-06-08T00:21:21.359Z,33.17
2018-06-08T00:23:49.922Z,31.23
2018-06-08T00:26:18.186Z,45.10
2018-06-08T00:28:47.007Z,32.77
2018-06-08T00:31:15.327Z,39.03
2018-06-08T00:33:43.776Z,38.23
2018-06-08T00:36:12.092Z,32.37
2018-06-08T00:38:40.975Z,34.13
2018-06-08T00:41:09.271Z,42.40
2018-06-08T00:43:37.540Z,40.07
2018-06-08T00:46:06.726Z,43.20
2018-06-08T00:48:35.012Z,38.60
2018-06-08T00:51:03.035Z,36.97
2018-06-08T00:53:31.322Z,47.17
2018-06-08T00:55:59.689Z,44.77
2018-06-08T00:58:27.969Z,43.17
2018-06-08T01:00:56.277Z,51.70
2018-06-08T01:03:24.574Z,36.90
2018-06-08T01:05:53.037Z,39.77
2018-06-08T01:08:25.306Z,39.47
2018-06-08T01:10:53.607Z,43.10
2018-06-08T01:13:22.012Z,42.03
2018-06-08T01:15:51.242Z,44.27
2018-06-08T01:18:19.509Z,39.87
2018-06-08T01:20:47.831Z,38.10
2018-06-08T01:23:16.107Z,41.43
2018-06-08T01:25:44.398Z,38.17
2018-06-08T01:28:12.667Z,44.37
2018-06-08T01:30:40.980Z,40.07
2018-06-08T01:33:09.290Z,51.33
2018-06-08T01:35:38.587Z,43.93
2018-06-08T01:38:06.931Z,50.70
2018-06-08T01:40:34.941Z,46.83
2018-06-08T01:43:03.266Z,52.63
2018-06-08T01:45:31.305Z,53.10
2018-06-08T01:47:59.598Z,47.03
2018-06-08T01:50:27.870Z,46.87
2018-06-08T01:52:56.150Z,49.37
2018-06-08T01:55:24.438Z,47.50
2018-06-08T01:57:52.747Z,46.60
2018-06-08T02:00:21.089Z,51.33
2018-06-08T02:02:49.341Z,55.67
2018-06-08T02:05:17.701Z,52.90
2018-06-08T02:07:47.248Z,55.20
2018-06-08T02:10:15.649Z,47.80
2018-06-08T02:12:43.963Z,53.87
2018-06-08T02:15:12.275Z,52.00
2018-06-08T02:17:41.197Z,54.97
2018-06-08T02:20:09.241Z,54.00
2018-06-08T02:22:37.490Z,52.73
2018-06-08T02:25:06.115Z,55.30
2018-06-08T02:27:34.535Z,50.77
2018-06-08T02:30:02.867Z,48.50
2018-06-08T02:32:31.270Z,53.90
2018-06-08T02:34:59.850Z,48.17
2018-06-08T02:37:28.595Z,47.23
2018-06-08T02:39:56.895Z,46.77
2018-06-08T02:42:25.153Z,50.80
2018-06-08T02:44:53.447Z,50.23
2018-06-08T02:47:21.722Z,45.60
2018-06-08T02:49:50.005Z,49.23
2018-06-08T02:52:18.303Z,48.43
2018-06-08T02:54:46.928Z,55.53
2018-06-08T02:57:15.191Z,48.23
2018-06-08T02:59:43.519Z,53.97
2018-06-08T03:02:11.882Z,51.23
2018-06-08T03:04:40.158Z,53.43
2018-06-08T03:07:08.420Z,49.30
2018-06-08T03:09:36.715Z,58.50
2018-06-08T03:12:05.061Z,49.83
2018-06-08T03:14:33.423Z,48.43
2018-06-08T03:17:02.123Z,47.57
2018-06-08T03:19:31.440Z,46.70
2018-06-08T03:21:59.764Z,49.57
2018-06-08T03:24:28.107Z,46.37
2018-06-08T03:26:56.346Z,46.30
2018-06-08T03:29:25.028Z,44.97
2018-06-08T03:31:53.644Z,44.90
2018-06-08T03:34:22.618Z,45.57
2018-06-08T03:36:51.645Z,40.43
2018-06-08T03:39:19.911Z,44.57
2018-06-08T03:41:49.209Z,39.53
2018-06-08T03:44:17.530Z,49.17
2018-06-08T03:46:45.886Z,49.53
2018-06-08T03:49:14.198Z,56.13
2018-06-08T03:51:42.638Z,52.60
2018-06-08T03:54:10.912Z,54.27
2018-06-08T03:56:39.194Z,61.47
2018-06-08T03:59:07.452Z,52.30
2018-06-08T04:01:35.726Z,54.10
2018-06-08T04:04:04.170Z,50.77
2018-06-08T04:06:32.901Z,47.83
2018-06-08T04:09:01.390Z,53.60
2018-06-08T04:11:29.782Z,55.23
2018-06-08T04:13:58.048Z,61.17
2018-06-08T04:16:26.332Z,59.43
2018-06-08T04:18:54.583Z,50.83
2018-06-08T04:21:22.889Z,56.80
2018-06-08T04:23:51.182Z,54.67
2018-06-08T04:26:20.117Z,55.37
2018-06-08T04:28:49.125Z,54.03
2018-06-08T04:31:17.209Z,59.73
2018-06-08T04:33:45.677Z,55.63
2018-06-08T04:36:14.701Z,53.70
2018-06-08T04:38:43.015Z,62.33
2018-06-08T04:41:11.304Z,61.33
2018-06-08T04:43:39.742Z,67.97
2018-06-08T04:46:08.696Z,64.47
2018-06-08T04:48:36.971Z,66.20
2018-06-08T04:51:05.247Z,74.87
2018-06-08T04:53:34.047Z,81.83
2018-06-08T04:56:02.445Z,79.03
2018-06-08T04:58:31.074Z,87.57
2018-06-08T05:00:59.424Z,72.33
2018-06-08T05:03:27.874Z,72.87
2018-06-08T05:05:57.778Z,83.80
2018-06-08T05:08:26.182Z,71.47
2018-06-08T05:10:54.722Z,80.33
2018-06-08T05:13:23.891Z,70.87
2018-06-08T05:15:52.230Z,80.70
2018-06-08T05:18:20.531Z,71.93
2018-06-08T05:20:48.885Z,64.50
2018-06-08T05:23:24.663Z,60.20
2018-06-08T05:25:53.255Z,59.50
2018-06-08T05:28:21.535Z,57.97
2018-06-08T05:30:52.459Z,53.23
2018-06-08T05:33:20.724Z,59.67
2018-06-08T05:35:49.019Z,58.87
2018-06-08T05:38:18.270Z,57.53
2018-06-08T05:40:47.306Z,55.57
2018-06-08T05:43:16.118Z,49.27
2018-06-08T05:45:44.448Z,63.40
2018-06-08T05:48:12.735Z,57.93
2018-06-08T05:50:41.030Z,55.50
2018-06-08T05:53:11.245Z,53.97
2018-06-08T05:55:39.642Z,46.00
2018-06-08T05:58:07.944Z,49.27
2018-06-08T06:00:36.411Z,51.30
2018-06-08T06:03:07.128Z,48.27
2018-06-08T06:05:35.778Z,50.67
2018-06-08T06:08:04.079Z,48.30
2018-06-08T06:10:32.557Z,45.60
2018-06-08T06:13:01.059Z,42.23
2018-06-08T06:15:29.692Z,45.03
2018-06-08T06:17:58.261Z,47.77
2018-06-08T06:20:26.639Z,45.63
2018-06-08T06:22:57.736Z,51.10
2018-06-08T06:25:26.037Z,44.67
2018-06-08T06:27:54.520Z,44.33
2018-06-08T06:30:23.493Z,37.40
2018-06-08T06:32:52.004Z,37.03
2018-06-08T06:35:20.351Z,34.67
2018-06-08T06:37:48.660Z,32.70
2018-06-08T06:40:20.319Z,28.80
2018-06-08T06:42:49.373Z,27.43
2018-06-08T06:45:17.838Z,31.77
2018-06-08T06:47:46.423Z,28.10
2018-06-08T06:50:15.050Z,33.53
2018-06-08T06:52:44.240Z,27.83
2018-06-08T06:55:13.662Z,28.43
2018-06-08T06:57:42.082Z,31.77
2018-06-08T07:00:10.372Z,26.10
2018-06-08T07:02:39.030Z,26.07
2018-06-08T07:05:07.295Z,24.53
2018-06-08T07:07:35.582Z,24.37
2018-06-08T07:10:03.879Z,27.83
2018-06-08T07:12:32.162Z,26.50
2018-06-08T07:15:00.536Z,25.23
2018-06-08T07:17:28.646Z,23.47
2018-06-08T07:19:58.295Z,26.40
2018-06-08T07:22:27.746Z,21.53
2018-06-08T07:24:56.856Z,25.67
2018-06-08T07:27:25.134Z,21.93
2018-06-08T07:29:54.343Z,21.80
2018-06-08T07:32:22.644Z,22.83
2018-06-08T07:34:51.929Z,22.00
2018-06-08T07:37:20.233Z,22.20
2018-06-08T07:39:49.291Z,22.33
2018-06-08T07:42:17.607Z,21.87
2018-06-08T07:44:45.903Z,23.23
2018-06-08T07:47:14.185Z,24.20
2018-06-08T07:49:42.454Z,21.50
2018-06-08T07:52:10.746Z,23.63
2018-06-08T07:54:39.023Z,28.63
2018-06-08T07:57:07.301Z,27.77
2018-06-08T07:59:35.576Z,27.30
2018-06-08T08:02:04.824Z,25.43
2018-06-08T08:04:33.176Z,31.07
2018-06-08T08:07:01.473Z,29.50
2018-06-08T08:09:29.731Z,26.67
2018-06-08T08:11:58.018Z,28.03
2018-06-08T08:14:26.282Z,24.73
2018-06-08T08:16:55.581Z,23.93
2018-06-08T08:19:23.929Z,27.67
2018-06-08T08:21:52.163Z,21.27
2018-06-08T08:24:20.454Z,18.73
2018-06-08T08:26:49.630Z,17.37
2018-06-08T08:29:17.930Z,19.50
2018-06-08T08:31:46.228Z,20.23
2018-06-08T08:34:14.562Z,18.00
2018-06-08T08:36:42.825Z,18.10
2018-06-08T08:39:11.321Z,16.73
2018-06-08T08:41:39.589Z,16.73
2018-06-08T08:44:07.877Z,16.90
2018-06-08T08:46:36.174Z,16.17
2018-06-08T08:49:05.326Z,15.83
2018-06-08T08:51:33.666Z,17.33
2018-06-08T08:54:02.005Z,15.30
2018-06-08T08:56:30.278Z,15.73
2018-06-08T08:59:00.040Z,13.88
2018-06-08T09:01:29.461Z,12.55
2018-06-08T09:03:58.750Z,14.83
2018-06-08T09:06:27.028Z,13.90
2018-06-08T09:08:55.412Z,14.55
2018-06-08T09:11:23.718Z,13.90
2018-06-08T09:13:51.994Z,16.05
2018-06-08T09:16:20.804Z,16.10
2018-06-08T09:18:50.603Z,16.23
2018-06-08T09:21:19.765Z,15.93
2018-06-08T09:23:48.093Z,19.43
2018-06-08T09:26:16.490Z,15.10
2018-06-08T09:28:44.781Z,15.17
2018-06-08T09:31:13.166Z,13.67
2018-06-08T09:33:41.456Z,15.50
2018-06-08T09:36:09.739Z,13.63
2018-06-08T09:38:38.042Z,15.47
2018-06-08T09:41:06.320Z,16.62
2018-06-08T09:43:34.602Z,14.23
2018-06-08T09:46:03.273Z,15.58
2018-06-08T09:48:32.077Z,14.90
2018-06-08T09:51:01.631Z,13.33
2018-06-08T09:53:29.926Z,13.50
2018-06-08T09:55:58.174Z,14.90
2018-06-08T09:58:26.454Z,13.53
2018-06-08T10:00:54.714Z,15.57
2018-06-08T10:03:23.016Z,15.33
2018-06-08T10:05:51.512Z,12.73
2018-06-08T10:08:20.596Z,14.47
2018-06-08T10:10:48.907Z,13.45
2018-06-08T10:13:18.082Z,11.97
2018-06-08T10:15:47.170Z,12.43
2018-06-08T10:18:15.894Z,11.68
2018-06-08T10:20:44.372Z,11.95
2018-06-08T10:23:14.059Z,11.78
2018-06-08T10:25:43.061Z,13.13
2018-06-08T10:28:11.372Z,13.30
2018-06-08T10:30:39.736Z,13.03
2018-06-08T10:33:08.036Z,11.97
2018-06-08T10:35:36.330Z,11.48
2018-06-08T10:38:08.472Z,12.60
2018-06-08T10:40:37.214Z,13.68
2018-06-08T10:43:05.510Z,13.13
2018-06-08T10:45:33.771Z,12.43
2018-06-08T10:48:02.076Z,12.50
2018-06-08T10:50:30.351Z,14.30
2018-06-08T10:52:58.638Z,13.13
2018-06-08T10:55:27.016Z,12.13
2018-06-08T10:57:55.282Z,12.60
2018-06-08T11:00:24.616Z,11.17
2018-06-08T11:02:52.895Z,11.60
2018-06-08T11:05:21.194Z,11.47
2018-06-08T11:07:49.542Z,11.03
2018-06-08T11:10:18.834Z,12.10
2018-06-08T11:12:47.098Z,10.87
2018-06-08T11:15:15.462Z,11.77
2018-06-08T11:17:44.381Z,9.93
2018-06-08T11:20:15.081Z,10.93
2018-06-08T11:22:44.283Z,10.30
2018-06-08T11:25:13.758Z,9.60
2018-06-08T11:27:43.817Z,11.30
2018-06-08T11:30:12.322Z,10.23
2018-06-08T11:32:40.687Z,13.90
2018-06-08T11:35:08.950Z,10.70
2018-06-08T11:37:37.350Z,10.00
2018-06-08T11:40:05.662Z,10.30
2018-06-08T11:42:33.931Z,10.40
2018-06-08T11:45:02.338Z,10.13
2018-06-08T11:47:30.602Z,12.23
2018-06-08T11:49:58.882Z,9.60
2018-06-08T11:52:27.146Z,9.20
2018-06-08T11:54:56.726Z,10.83
2018-06-08T11:57:24.982Z,8.93
2018-06-08T11:59:53.254Z,8.87
2018-06-08T12:02:21.514Z,8.87
2018-06-08T12:04:49.801Z,9.70
2018-06-08T12:07:18.358Z,9.10
2018-06-08T12:09:49.398Z,7.13
2018-06-08T12:12:18.583Z,8.93
2018-06-08T12:14:47.115Z,7.87
2018-06-08T12:17:15.387Z,8.37
2018-06-08T12:19:43.698Z,8.53
2018-06-08T12:22:12.059Z,8.80
2018-06-08T12:24:40.332Z,8.13
2018-06-08T12:27:08.594Z,9.50
2018-06-08T12:29:36.930Z,8.73
2018-06-08T12:32:05.203Z,9.57
2018-06-08T12:34:33.487Z,9.00
2018-06-08T12:37:01.771Z,8.70
2018-06-08T12:39:30.055Z,8.27
2018-06-08T12:41:58.315Z,9.60
2018-06-08T12:44:26.737Z,8.43
2018-06-08T12:46:55.002Z,8.77
2018-06-08T12:49:23.457Z,10.67
2018-06-08T12:51:51.714Z,8.80
2018-06-08T12:54:19.995Z,8.80
2018-06-08T12:56:49.325Z,9.27
2018-06-08T12:59:17.663Z,9.80
2018-06-08T13:01:47.315Z,9.70
2018-06-08T13:04:16.423Z,9.03
2018-06-08T13:06:45.032Z,8.57
2018-06-08T13:09:14.103Z,10.63
2018-06-08T13:11:43.330Z,9.03
2018-06-08T13:14:11.957Z,8.97
2018-06-08T13:16:41.439Z,8.37
2018-06-08T13:19:10.994Z,9.17
2018-06-08T13:24:13.096Z,8.77
2018-06-08T13:26:41.361Z,9.87
2018-06-08T13:29:09.662Z,9.17
2018-06-08T13:31:37.930Z,12.43
2018-06-08T13:34:06.476Z,10.10
2018-06-08T13:36:34.744Z,9.00
2018-06-08T13:39:04.678Z,9.90
2018-06-08T13:41:32.952Z,9.80
2018-06-08T13:44:01.207Z,9.43
2018-06-08T13:46:40.883Z,10.37
2018-06-08T13:49:09.154Z,9.53
2018-06-08T13:51:38.186Z,9.40
2018-06-08T13:54:06.459Z,9.63
2018-06-08T13:56:36.088Z,10.33
2018-06-08T13:59:04.415Z,11.37
2018-06-08T14:01:33.630Z,10.17
2018-06-08T14:04:02.903Z,9.40
2018-06-08T14:06:31.206Z,9.77
2018-06-08T14:08:59.812Z,10.47
2018-06-08T14:11:28.111Z,9.23
2018-06-08T14:13:56.541Z,9.70
2018-06-08T14:16:24.906Z,10.37
2018-06-08T14:18:53.160Z,10.07
2018-06-08T14:21:21.611Z,9.90
2018-06-08T14:23:49.939Z,9.37
2018-06-08T14:26:18.295Z,9.97
2018-06-08T14:28:46.776Z,9.23
2018-06-08T14:31:15.322Z,9.40
2018-06-08T14:33:44.602Z,9.00
2018-06-08T14:36:13.826Z,9.53
2018-06-08T14:38:42.115Z,9.17
2018-06-08T14:41:10.411Z,8.50
2018-06-08T14:43:39.070Z,9.37
2018-06-08T14:46:07.369Z,8.13
2018-06-08T14:48:36.656Z,8.93
2018-06-08T14:51:06.032Z,9.20
2018-06-08T14:53:35.827Z,9.07
2018-06-08T14:56:11.038Z,8.77
2018-06-08T14:58:39.652Z,8.83
2018-06-08T15:01:08.154Z,9.20
2018-06-08T15:03:37.248Z,9.50
2018-06-08T15:06:05.622Z,9.73
2018-06-08T15:08:33.935Z,8.83
2018-06-08T15:11:02.218Z,8.70
2018-06-08T15:13:30.478Z,7.63
2018-06-08T15:15:58.829Z,7.97
2018-06-08T15:18:27.081Z,8.13
2018-06-08T15:20:55.355Z,6.90
2018-06-08T15:23:23.637Z,5.50
2018-06-08T15:25:51.919Z,7.57
2018-06-08T15:28:20.176Z,6.00
2018-06-08T15:30:49.683Z,7.07
2018-06-08T15:33:19.835Z,6.53
2018-06-08T15:35:48.124Z,6.30
2018-06-08T15:38:16.425Z,6.77
2018-06-08T15:40:44.958Z,6.17
2018-06-08T15:43:15.639Z,5.77
2018-06-08T15:45:45.397Z,7.13
2018-06-08T15:48:15.118Z,6.33
2018-06-08T15:50:43.486Z,6.30
2018-06-08T15:53:11.774Z,6.23
2018-06-08T15:55:40.072Z,6.30
2018-06-08T15:58:08.335Z,8.00
2018-06-08T16:00:36.643Z,7.00
2018-06-08T16:03:04.939Z,6.70
2018-06-08T16:05:33.227Z,6.50
2018-06-08T16:08:01.523Z,5.80
2018-06-08T16:10:29.804Z,7.07
2018-06-08T16:12:58.068Z,7.33
2018-06-08T16:15:26.385Z,7.00
2018-06-08T16:17:54.663Z,7.07
2018-06-08T16:20:23.005Z,7.77
2018-06-08T16:22:51.523Z,7.47
2018-06-08T16:25:19.933Z,8.60
2018-06-08T16:27:48.226Z,8.60
2018-06-08T16:30:16.488Z,8.17
2018-06-08T16:32:44.786Z,8.07
2018-06-08T16:35:14.148Z,8.77
2018-06-08T16:37:44.058Z,9.40
2018-06-08T16:40:12.363Z,8.37
2018-06-08T16:42:40.675Z,9.20
2018-06-08T16:45:08.959Z,8.27
2018-06-08T16:47:37.250Z,8.40
2018-06-08T16:50:06.875Z,8.00
2018-06-08T16:52:35.283Z,9.33
2018-06-08T16:55:03.618Z,9.63
2018-06-08T16:57:34.000Z,9.23
2018-06-08T17:00:03.350Z,8.77
2018-06-08T17:02:31.914Z,8.53
2018-06-08T17:05:00.207Z,10.00
2018-06-08T17:07:29.734Z,9.73
2018-06-08T17:09:58.027Z,14.43
2018-06-08T17:12:27.779Z,7.97
2018-06-08T17:14:58.603Z,6.53
2018-06-08T17:17:26.938Z,7.17
2018-06-08T17:19:55.194Z,8.37
2018-06-08T17:22:23.537Z,11.03
2018-06-08T17:24:51.822Z,7.10
2018-06-08T17:27:21.143Z,7.70
2018-06-08T17:29:49.411Z,10.57
2018-06-08T17:32:18.508Z,10.20
2018-06-08T17:34:47.070Z,8.37
2018-06-08T17:37:15.350Z,8.23
2018-06-08T17:39:43.627Z,7.83
2018-06-08T17:42:12.963Z,10.77
2018-06-08T17:44:41.932Z,8.87
2018-06-08T17:47:10.393Z,8.30
2018-06-08T17:49:38.652Z,8.37
2018-06-08T17:52:06.930Z,8.13
2018-06-08T17:54:35.219Z,8.53
2018-06-08T17:57:03.526Z,7.97
2018-06-08T17:59:31.915Z,8.97
2018-06-08T18:02:00.266Z,7.67
2018-06-08T18:04:28.534Z,9.43
2018-06-08T18:06:56.814Z,8.00
2018-06-08T18:09:25.346Z,8.37
2018-06-08T18:11:53.774Z,9.77
2018-06-08T18:14:22.010Z,12.00
2018-06-08T18:16:51.034Z,7.87
2018-06-08T18:19:20.731Z,7.40
2018-06-08T18:21:49.012Z,8.73
2018-06-08T18:24:17.323Z,7.70
2018-06-08T18:26:45.754Z,7.83
2018-06-08T18:29:14.938Z,7.87
2018-06-08T18:31:43.223Z,8.00
2018-06-08T18:34:11.503Z,9.57
2018-06-08T18:36:40.654Z,9.17
2018-06-08T18:39:09.786Z,7.97
2018-06-08T18:41:38.293Z,7.93
2018-06-08T18:44:06.578Z,7.60
2018-06-08T18:46:34.844Z,8.20
2018-06-08T18:49:03.170Z,8.13
2018-06-08T18:51:31.542Z,8.00
2018-06-08T18:53:59.818Z,8.17
2018-06-08T18:56:28.940Z,9.67
2018-06-08T18:58:58.402Z,7.80
2018-06-08T19:01:26.723Z,8.00
2018-06-08T19:03:55.047Z,8.30
2018-06-08T19:06:24.959Z,8.10
2018-06-08T19:08:54.067Z,7.97
2018-06-08T19:11:22.337Z,9.50
2018-06-08T19:13:52.626Z,8.63
2018-06-08T19:16:24.774Z,8.37
2018-06-08T19:18:53.053Z,8.60
2018-06-08T19:21:23.283Z,11.50
2018-06-08T19:23:53.955Z,9.00
2018-06-08T19:26:23.320Z,9.90
2018-06-08T19:28:51.864Z,9.20
2018-06-08T19:31:20.135Z,9.97
2018-06-08T19:33:48.411Z,9.03
2018-06-08T19:36:16.842Z,9.07
2018-06-08T19:38:46.314Z,9.00
2018-06-08T19:41:15.566Z,8.97
2018-06-08T19:43:44.773Z,9.20
2018-06-08T19:46:13.112Z,9.33
2018-06-08T19:48:41.559Z,9.73
2018-06-08T19:51:09.830Z,11.67
2018-06-08T19:53:38.915Z,9.20
2018-06-08T19:56:07.214Z,9.40
2018-06-08T19:58:35.610Z,9.10
2018-06-08T20:01:04.126Z,10.57
2018-06-08T20:03:33.601Z,10.40
2018-06-08T20:06:02.658Z,10.23
2018-06-08T20:08:30.930Z,10.27
2018-06-08T20:11:00.903Z,10.10
2018-06-08T20:13:30.205Z,10.27
2018-06-08T20:15:58.590Z,11.50
2018-06-08T20:18:26.854Z,11.17
2018-06-08T20:20:55.179Z,11.17
2018-06-08T20:23:23.463Z,12.23
2018-06-08T20:25:51.758Z,11.00
2018-06-08T20:28:20.050Z,10.43
2018-06-08T20:30:49.315Z,10.73
2018-06-08T20:33:17.642Z,12.47
2018-06-08T20:35:45.943Z,11.30
2018-06-08T20:38:14.248Z,13.10
2018-06-08T20:40:43.251Z,11.97
2018-06-08T20:43:11.533Z,12.47
2018-06-08T20:45:39.786Z,11.67
2018-06-08T20:48:08.170Z,12.63
2018-06-08T20:50:36.507Z,13.17
2018-06-08T20:53:04.769Z,12.37
2018-06-08T20:55:33.078Z,12.03
2018-06-08T20:58:03.014Z,13.33
2018-06-08T21:00:31.373Z,12.60
2018-06-08T21:03:00.190Z,13.20
2018-06-08T21:05:28.549Z,12.80
2018-06-08T21:07:56.833Z,14.23
2018-06-08T21:10:25.099Z,14.43
2018-06-08T21:12:55.425Z,14.63
2018-06-08T21:15:25.446Z,14.00
2018-06-08T21:17:53.836Z,13.87
2018-06-08T21:20:22.089Z,15.47
2018-06-08T21:22:50.380Z,15.00
2018-06-08T21:25:18.760Z,14.80
2018-06-08T21:27:47.013Z,15.33
2018-06-08T21:30:15.313Z,15.93
2018-06-08T21:32:44.398Z,15.87
2018-06-08T21:35:13.459Z,17.07
2018-06-08T21:37:41.715Z,17.47
2018-06-08T21:40:10.202Z,15.90
2018-06-08T21:42:38.489Z,15.70
2018-06-08T21:45:06.858Z,15.73
2018-06-08T21:47:35.139Z,16.63
2018-06-08T21:50:03.458Z,17.23
2018-06-08T21:52:31.758Z,16.17
2018-06-08T21:55:00.068Z,18.70
2018-06-08T21:57:28.366Z,16.70
2018-06-08T21:59:56.650Z,17.30
2018-06-08T22:02:25.872Z,18.63
2018-06-08T22:04:54.368Z,17.33
2018-06-08T22:07:22.643Z,17.33
2018-06-08T22:09:50.906Z,16.17
2018-06-08T22:12:19.186Z,18.43
2018-06-08T22:14:47.447Z,16.40
2018-06-08T22:17:15.714Z,17.00
2018-06-08T22:19:44.002Z,17.53
2018-06-08T22:22:12.281Z,18.30
2018-06-08T22:24:41.955Z,17.03
2018-06-08T22:27:10.468Z,17.17
2018-06-08T22:29:41.063Z,17.27
2018-06-08T22:32:09.881Z,18.70
2018-06-08T22:34:38.223Z,16.87
2018-06-08T22:37:06.517Z,16.33
2018-06-08T22:39:37.698Z,17.77
2018-06-08T22:42:06.076Z,17.07
2018-06-08T22:44:34.647Z,18.00
2018-06-08T22:47:02.940Z,18.13
2018-06-08T22:49:32.187Z,17.43
2018-06-08T22:52:00.545Z,18.37
2018-06-08T22:54:28.806Z,17.20
2018-06-08T22:56:57.112Z,18.10
2018-06-08T22:59:25.389Z,17.60
2018-06-08T23:01:53.678Z,17.50
2018-06-08T23:04:23.220Z,18.47
2018-06-08T23:06:51.530Z,18.80
2018-06-08T23:09:20.461Z,17.63
2018-06-08T23:11:48.758Z,17.47
2018-06-08T23:14:17.055Z,18.10
2018-06-08T23:16:45.323Z,18.33
2018-06-08T23:19:13.608Z,16.73
2018-06-08T23:21:41.886Z,17.33
2018-06-08T23:24:10.920Z,18.97
2018-06-08T23:26:39.242Z,22.20
2018-06-08T23:29:07.524Z,17.60
2018-06-08T23:31:35.838Z,19.03
2018-06-08T23:34:04.143Z,21.47
2018-06-08T23:36:32.430Z,17.33
2018-06-08T23:39:00.748Z,19.40
2018-06-08T23:41:30.407Z,17.03
2018-06-08T23:44:00.634Z,17.90
2018-06-08T23:46:29.389Z,17.03
2018-06-08T23:48:57.663Z,17.87
2018-06-08T23:51:25.933Z,21.37
2018-06-08T23:53:54.218Z,20.90
2018-06-08T23:56:22.486Z,16.77
2018-06-08T23:58:50.744Z,17.00
